Ubirata, Brazil
Current Conditions -  °F | °C
As of 11:00 AM on Thursday 30 Oct 2014 (Local Time) from SBCA Reporting Station
Scattered Clouds Scattered Clouds  
Wind Chill: 86°   Ceiling: Unl
Heat Index: 87°   Visibility: 6mi
Dew Point: 64°   Wind: 25mph
Humidity: 48%   Direction: 10°N
Pressure: 29.85"   Gusts: NA
Location:  24.55°S, 52.99°W
Report Text: SBCA 301300Z 01022KT 9999 SCT040 30/18 Q1011
Loading
Personal Weather Stations






























Interactive Weather Map
Tropical Storm Tracking
New forecast layout! Learn more

10-Day Weather Forecast

Advertisements
Track Severe Weather on mobile